createdAt,value
2023-03-13T00:01:20.298Z,1.50
2023-03-13T00:05:22.549Z,1.30
2023-03-13T00:09:26.184Z,1.20
2023-03-13T00:13:08.412Z,2.20
2023-03-13T00:17:12.001Z,1.50
2023-03-13T00:21:14.790Z,1.60
2023-03-13T00:25:18.437Z,1.40
2023-03-13T00:29:16.053Z,1.10
2023-03-13T00:33:22.364Z,1.70
2023-03-13T00:37:26.021Z,1.30
2023-03-13T00:41:30.071Z,1.50
2023-03-13T00:45:19.674Z,3.00
2023-03-13T00:49:23.312Z,2.00
2023-03-13T00:53:24.366Z,2.10
2023-03-13T00:57:28.142Z,1.40
2023-03-13T01:01:17.486Z,1.60
2023-03-13T01:05:14.151Z,2.10
2023-03-13T01:09:10.514Z,1.60
2023-03-13T01:13:07.168Z,2.40
2023-03-13T01:17:09.520Z,2.00
2023-03-13T01:21:13.313Z,3.10
2023-03-13T01:25:02.242Z,2.00
2023-03-13T01:29:05.960Z,2.30
2023-03-13T01:33:10.424Z,2.20
2023-03-13T01:36:58.688Z,1.60
2023-03-13T01:41:00.846Z,2.00
2023-03-13T01:49:29.050Z,1.90
2023-03-13T01:53:32.674Z,2.10
2023-03-13T01:57:42.134Z,3.10
2023-03-13T02:01:46.223Z,1.90
2023-03-13T02:05:43.578Z,2.10
2023-03-13T02:09:47.400Z,2.50
2023-03-13T02:13:51.051Z,1.90
2023-03-13T02:17:55.336Z,2.80
2023-03-13T02:22:08.470Z,2.10
2023-03-13T02:26:27.517Z,1.10
2023-03-13T02:30:30.038Z,1.30
2023-03-13T02:34:25.826Z,1.80
2023-03-13T02:38:29.473Z,1.80
2023-03-13T02:42:33.206Z,1.50
2023-03-13T02:46:39.338Z,3.20
2023-03-13T02:50:36.111Z,2.40
2023-03-13T02:54:26.432Z,2.40
2023-03-13T02:58:26.552Z,2.30
2023-03-13T03:02:29.032Z,1.90
2023-03-13T03:06:32.694Z,2.20
2023-03-13T03:10:28.728Z,2.20
2023-03-13T03:14:32.399Z,2.60
2023-03-13T03:18:21.179Z,2.70
2023-03-13T03:22:17.501Z,2.70
2023-03-13T03:26:20.217Z,2.60
2023-03-13T03:30:24.126Z,1.90
2023-03-13T03:34:20.546Z,2.80
2023-03-13T03:38:15.671Z,1.90
2023-03-13T03:42:12.216Z,2.50
2023-03-13T03:46:16.034Z,1.70
2023-03-13T03:50:11.626Z,1.40
2023-03-13T03:54:15.263Z,2.50
2023-03-13T03:58:18.993Z,2.70
2023-03-13T04:02:21.475Z,2.40
2023-03-13T04:06:18.220Z,2.70
2023-03-13T04:10:21.848Z,2.80
2023-03-13T04:14:25.495Z,3.20
2023-03-13T04:18:28.015Z,2.10
2023-03-13T04:22:31.652Z,2.60
2023-03-13T04:26:35.314Z,2.10
2023-03-13T04:30:24.114Z,2.00
2023-03-13T04:34:19.390Z,2.50
2023-03-13T04:38:15.625Z,1.70
2023-03-13T04:42:19.214Z,2.60
2023-03-13T04:46:22.880Z,3.10
2023-03-13T04:50:25.539Z,2.00
2023-03-13T04:54:21.997Z,3.20
2023-03-13T04:58:25.644Z,2.10
2023-03-13T05:02:15.378Z,2.40
2023-03-13T05:06:11.683Z,3.20
2023-03-13T05:10:13.189Z,2.00
2023-03-13T05:14:09.221Z,3.70
2023-03-13T05:18:13.153Z,4.40
2023-03-13T05:22:45.331Z,3.00
2023-03-13T05:27:09.585Z,2.10
2023-03-13T05:31:41.123Z,1.80
2023-03-13T05:36:08.647Z,2.70
2023-03-13T05:40:40.614Z,2.90
2023-03-13T05:44:58.985Z,3.30
2023-03-13T05:48:53.909Z,3.70
2023-03-13T05:52:56.699Z,3.70
2023-03-13T05:56:53.061Z,3.00
2023-03-13T06:00:56.854Z,3.80
2023-03-13T06:04:59.251Z,3.00
2023-03-13T06:09:02.983Z,5.10
2023-03-13T06:13:19.007Z,4.20
2023-03-13T06:17:22.277Z,4.50
2023-03-13T06:21:17.338Z,5.30
2023-03-13T06:24:52.998Z,4.00
2023-03-13T06:28:55.384Z,4.70
2023-03-13T06:32:50.799Z,4.20
2023-03-13T06:36:31.817Z,4.30
2023-03-13T06:40:28.233Z,3.00
2023-03-13T06:44:24.819Z,3.70
2023-03-13T06:48:28.495Z,3.10
2023-03-13T06:52:43.086Z,3.10
2023-03-13T06:56:33.664Z,2.60
2023-03-13T07:00:30.149Z,3.20
2023-03-13T07:04:10.511Z,4.20
2023-03-13T07:07:52.253Z,4.70
2023-03-13T07:11:54.578Z,4.10
2023-03-13T07:15:35.659Z,3.90
2023-03-13T07:19:17.959Z,3.70
2023-03-13T07:23:13.241Z,3.30
2023-03-13T07:27:16.868Z,4.10
2023-03-13T07:31:11.836Z,3.30
2023-03-13T07:34:57.499Z,3.70
2023-03-13T07:38:40.535Z,4.00
2023-03-13T07:42:31.501Z,3.00
2023-03-13T07:46:20.662Z,3.00
2023-03-13T07:49:55.061Z,3.40
2023-03-13T07:53:22.132Z,3.20
2023-03-13T07:56:47.830Z,3.60
2023-03-13T08:00:17.582Z,3.30
2023-03-13T08:03:56.863Z,3.10
2023-03-13T08:07:37.434Z,3.70
2023-03-13T08:11:24.591Z,3.40
2023-03-13T08:15:13.444Z,4.40
2023-03-13T08:18:40.580Z,4.40
2023-03-13T08:22:15.519Z,3.20
2023-03-13T08:26:02.163Z,3.20
2023-03-13T08:29:42.596Z,2.90
2023-03-13T08:33:15.404Z,3.30
2023-03-13T08:37:10.401Z,2.90
2023-03-13T08:40:59.272Z,2.90
2023-03-13T08:44:20.965Z,3.90
2023-03-13T08:48:05.037Z,3.00
2023-03-13T08:51:51.783Z,2.60
2023-03-13T08:55:25.562Z,3.00
2023-03-13T08:59:16.086Z,2.60
2023-03-13T09:02:41.784Z,2.20
2023-03-13T09:05:56.368Z,2.40
2023-03-13T09:09:29.231Z,2.00
2023-03-13T09:12:38.107Z,2.50
2023-03-13T09:16:08.701Z,2.20
2023-03-13T09:19:47.825Z,1.60
2023-03-13T09:23:04.142Z,1.60
2023-03-13T09:26:20.392Z,2.00
2023-03-13T09:29:27.484Z,2.30
2023-03-13T09:32:30.630Z,2.20
2023-03-13T09:35:34.013Z,2.90
2023-03-13T09:38:38.491Z,1.80
2023-03-13T09:42:09.948Z,2.70
2023-03-13T09:45:18.817Z,1.60
2023-03-13T09:48:34.145Z,1.90
2023-03-13T09:51:41.301Z,1.50
2023-03-13T09:55:08.289Z,1.90
2023-03-13T09:58:31.904Z,1.70
2023-03-13T10:01:38.010Z,2.00
2023-03-13T10:04:46.054Z,1.60
2023-03-13T10:07:52.676Z,1.80
2023-03-13T10:11:08.399Z,2.10
2023-03-13T10:14:23.311Z,2.10
2023-03-13T10:17:41.669Z,2.10
2023-03-13T10:20:48.046Z,1.60
2023-03-13T10:23:58.389Z,1.90
2023-03-13T10:27:01.902Z,2.70
2023-03-13T10:30:06.254Z,1.30
2023-03-13T10:33:11.847Z,1.70
2023-03-13T10:36:15.686Z,2.20
2023-03-13T10:39:22.803Z,2.10
2023-03-13T10:42:33.685Z,1.80
2023-03-13T10:45:38.128Z,1.60
2023-03-13T10:48:41.876Z,1.70
2023-03-13T10:51:49.932Z,2.00
2023-03-13T10:55:00.203Z,1.40
2023-03-13T10:58:06.070Z,1.80
2023-03-13T11:01:26.991Z,1.50
2023-03-13T11:04:35.704Z,1.60
2023-03-13T11:07:40.592Z,1.70
2023-03-13T11:11:01.710Z,2.10
2023-03-13T11:14:16.400Z,1.20
2023-03-13T11:17:40.053Z,1.80
2023-03-13T11:20:46.956Z,1.80
2023-03-13T11:24:04.662Z,2.10
2023-03-13T11:27:35.362Z,1.80
2023-03-13T11:30:51.333Z,1.60
2023-03-13T11:34:06.813Z,3.30
2023-03-13T11:37:16.167Z,2.30
2023-03-13T11:40:37.316Z,1.80
2023-03-13T11:43:53.159Z,1.50
2023-03-13T11:47:14.352Z,2.20
2023-03-13T11:50:31.620Z,2.20
2023-03-13T11:54:22.075Z,2.40
2023-03-13T11:57:30.907Z,1.60
2023-03-13T12:00:40.721Z,1.80
2023-03-13T12:04:05.479Z,1.70
2023-03-13T12:07:36.911Z,1.90
2023-03-13T12:11:22.841Z,1.60
2023-03-13T12:14:52.203Z,2.00
2023-03-13T12:18:01.335Z,2.10
2023-03-13T12:21:34.621Z,2.40
2023-03-13T12:24:53.541Z,2.80
2023-03-13T12:28:30.040Z,2.20
2023-03-13T12:31:49.026Z,2.40
2023-03-13T12:34:59.488Z,1.70
2023-03-13T12:38:15.556Z,2.00
2023-03-13T12:41:57.045Z,1.70
2023-03-13T12:45:09.695Z,2.50
2023-03-13T12:48:56.414Z,1.80
2023-03-13T12:52:59.997Z,2.50
2023-03-13T12:56:49.696Z,2.20
2023-03-13T13:00:34.854Z,2.10
2023-03-13T13:04:21.526Z,2.30
2023-03-13T13:08:18.891Z,2.70
2023-03-13T13:12:19.949Z,2.40
2023-03-13T13:16:09.605Z,2.50
2023-03-13T13:20:25.581Z,2.20
2023-03-13T13:24:24.016Z,2.90
2023-03-13T13:28:27.540Z,2.70
2023-03-13T13:32:19.749Z,2.70
2023-03-13T13:36:50.919Z,2.80
2023-03-13T13:40:44.597Z,3.40
2023-03-13T13:45:00.333Z,3.10
2023-03-13T13:48:58.087Z,3.30
2023-03-13T13:53:03.585Z,2.90
2023-03-13T13:56:49.792Z,2.40
2023-03-13T14:00:30.209Z,1.80
2023-03-13T14:03:50.713Z,1.80
2023-03-13T14:07:54.616Z,2.50
2023-03-13T14:12:16.473Z,2.30
2023-03-13T14:16:25.425Z,2.30
2023-03-13T14:20:57.996Z,2.20
2023-03-13T14:25:04.031Z,2.80
2023-03-13T14:29:48.286Z,2.30
2023-03-13T14:34:32.931Z,2.70
2023-03-13T14:38:41.040Z,2.60
2023-03-13T14:42:46.797Z,2.50
2023-03-13T14:46:44.882Z,2.00
2023-03-13T14:50:36.851Z,2.00
2023-03-13T14:54:41.222Z,2.70
2023-03-13T14:59:01.019Z,2.40
2023-03-13T15:03:12.868Z,1.80
2023-03-13T15:07:33.594Z,2.00
2023-03-13T15:11:39.310Z,2.20
2023-03-13T15:15:44.901Z,1.70
2023-03-13T15:19:48.523Z,2.30
2023-03-13T15:23:46.342Z,2.70
2023-03-13T15:27:46.419Z,2.50
2023-03-13T15:30:58.122Z,1.90
2023-03-13T15:34:30.156Z,2.50
2023-03-13T15:38:26.938Z,2.40
2023-03-13T15:41:37.572Z,2.70
2023-03-13T15:49:32.602Z,1.80
2023-03-13T15:53:13.975Z,2.50
2023-03-13T15:57:03.440Z,2.30
2023-03-13T16:00:43.639Z,1.70
2023-03-13T16:04:37.852Z,1.60
2023-03-13T16:08:35.178Z,2.20
2023-03-13T16:11:58.771Z,2.10
2023-03-13T16:15:37.795Z,2.50
2023-03-13T16:19:26.934Z,2.20
2023-03-13T16:23:20.215Z,2.10
2023-03-13T16:31:02.428Z,2.30
2023-03-13T16:35:06.047Z,2.30
2023-03-13T16:39:09.353Z,1.90
2023-03-13T16:42:51.289Z,2.40
2023-03-13T16:47:05.155Z,2.30
2023-03-13T16:51:26.594Z,2.50
2023-03-13T16:55:36.805Z,1.90
2023-03-13T17:03:57.722Z,2.00
2023-03-13T17:08:18.817Z,2.00
2023-03-13T17:12:23.002Z,1.50
2023-03-13T17:16:23.156Z,1.70
2023-03-13T17:20:19.564Z,2.50
2023-03-13T17:24:07.799Z,2.50
2023-03-13T17:27:39.376Z,2.10
2023-03-13T17:31:43.271Z,2.20
2023-03-13T17:35:23.812Z,1.70
2023-03-13T17:39:12.704Z,1.80
2023-03-13T17:43:16.561Z,1.50
2023-03-13T17:47:00.628Z,1.50
2023-03-13T17:50:57.237Z,1.40
2023-03-13T17:54:59.797Z,1.90
2023-03-13T17:58:48.884Z,2.20
2023-03-13T18:02:43.093Z,2.40
2023-03-13T18:06:47.418Z,2.60
2023-03-13T18:11:16.508Z,2.10
2023-03-13T18:15:05.804Z,2.00
2023-03-13T18:18:45.444Z,2.30
2023-03-13T18:22:24.876Z,1.80
2023-03-13T18:26:05.623Z,1.70
2023-03-13T18:30:18.732Z,2.10
2023-03-13T18:34:15.272Z,1.70
2023-03-13T18:38:15.859Z,1.60
2023-03-13T18:42:18.375Z,1.40
2023-03-13T18:46:21.532Z,2.40
2023-03-13T18:50:09.776Z,1.60
2023-03-13T18:53:45.539Z,1.20
2023-03-13T18:57:55.189Z,1.50
2023-03-13T19:01:44.138Z,1.60
2023-03-13T19:05:16.596Z,1.40
2023-03-13T19:09:08.814Z,1.20
2023-03-13T19:13:06.649Z,1.20
2023-03-13T19:17:10.289Z,1.90
2023-03-13T19:21:05.740Z,1.50
2023-03-13T19:24:46.124Z,1.20
2023-03-13T19:28:38.817Z,1.40
2023-03-13T19:32:33.829Z,1.40
2023-03-13T19:36:08.115Z,2.00
2023-03-13T19:40:16.990Z,1.70
2023-03-13T19:44:20.817Z,1.70
2023-03-13T19:51:31.401Z,2.60
2023-03-13T19:55:29.010Z,1.60
2023-03-13T19:59:23.609Z,1.90
2023-03-13T20:03:27.326Z,1.90
2023-03-13T20:07:31.124Z,1.70
2023-03-13T20:11:34.881Z,2.10
2023-03-13T20:15:31.361Z,1.80
2023-03-13T20:19:26.329Z,1.70
2023-03-13T20:23:21.593Z,1.30
2023-03-13T20:27:16.872Z,1.80
2023-03-13T20:31:20.823Z,2.30
2023-03-13T20:35:17.538Z,2.10
2023-03-13T20:39:11.425Z,1.70
2023-03-13T20:42:51.685Z,1.90
2023-03-13T20:46:45.423Z,1.70
2023-03-13T20:50:27.192Z,1.30
2023-03-13T20:54:18.051Z,1.50
2023-03-13T20:58:21.836Z,1.60
2023-03-13T21:02:12.095Z,1.80
2023-03-13T21:05:56.871Z,1.30
2023-03-13T21:09:03.976Z,1.50
2023-03-13T21:13:47.820Z,1.90
2023-03-13T21:17:36.260Z,2.00
2023-03-13T21:21:20.709Z,1.70
2023-03-13T21:25:08.536Z,1.20
2023-03-13T21:29:05.196Z,1.00
2023-03-13T21:32:56.345Z,1.70
2023-03-13T21:37:00.030Z,1.50
2023-03-13T21:40:56.475Z,1.70
2023-03-13T21:45:00.149Z,1.60
2023-03-13T21:48:55.365Z,1.30
2023-03-13T21:52:42.864Z,1.70
2023-03-13T21:56:45.254Z,2.10
2023-03-13T22:00:41.853Z,1.70
2023-03-13T22:04:31.272Z,1.20
2023-03-13T22:08:05.850Z,1.60
2023-03-13T22:11:47.559Z,1.40
2023-03-13T22:15:51.370Z,1.10
2023-03-13T22:19:47.459Z,1.90
2023-03-13T22:23:27.755Z,1.40
2023-03-13T22:27:23.183Z,1.10
2023-03-13T22:31:26.898Z,1.60
2023-03-13T22:35:23.073Z,1.20
2023-03-13T22:39:04.435Z,1.20
2023-03-13T22:42:46.251Z,1.40
2023-03-13T22:46:32.930Z,1.50
2023-03-13T22:50:13.709Z,1.70
2023-03-13T22:54:02.841Z,1.60
2023-03-13T22:58:05.269Z,0.80
2023-03-13T23:01:27.104Z,1.50
2023-03-13T23:05:31.370Z,1.30
2023-03-13T23:09:34.991Z,1.70
2023-03-13T23:13:28.460Z,1.40
2023-03-13T23:17:22.419Z,1.70
2023-03-13T23:21:16.594Z,1.80
2023-03-13T23:25:12.878Z,1.60
2023-03-13T23:29:10.497Z,1.40
2023-03-13T23:33:09.292Z,1.70
2023-03-13T23:37:03.216Z,1.50
2023-03-13T23:40:57.644Z,1.40
2023-03-13T23:44:48.613Z,1.80
2023-03-13T23:48:50.869Z,2.10
2023-03-13T23:52:35.077Z,1.90
2023-03-13T23:56:29.445Z,1.40
